International Virtual Aviation Organisation

Russian Federation and Kazakhstan MCD

 
UIAA 281430Z AUTO 22004MPS 9999 NCD M12/M15 Q1027 RMK QFE711/0948
QNH:(hPa/inHg/mmHg)1027 / 30.33 / 770
QFE:(hPa/inHg/mmHg)943 / 27.84 / 707
Temperature-12
Dew Point-15
Visibility> 10000
Weather
Cloud Cover
Transition Height1850 m./8400 ft.
Transition LevelFL90
SQUAWK